sensor_id;sensor_type;location;lat;lon;timestamp;pressure;altitude;pressure_sealevel;temperature;humidity
63500;BME280;49654;51.142;14.924;2022-09-12T00:01:47;99303.72;;;16.13;82.46
63500;BME280;49654;51.142;14.924;2022-09-12T00:04:14;99310.38;;;16.09;82.96
63500;BME280;49654;51.142;14.924;2022-09-12T00:06:41;99308.38;;;16.11;83.17
63500;BME280;49654;51.142;14.924;2022-09-12T00:09:10;99303.97;;;15.98;84.20
63500;BME280;49654;51.142;14.924;2022-09-12T00:11:40;99302.47;;;16.22;83.56
63500;BME280;49654;51.142;14.924;2022-09-12T00:14:09;99302.03;;;16.32;82.79
63500;BME280;49654;51.142;14.924;2022-09-12T00:16:38;99296.59;;;16.34;82.92
63500;BME280;49654;51.142;14.924;2022-09-12T00:19:06;99304.91;;;16.24;83.55
63500;BME280;49654;51.142;14.924;2022-09-12T00:21:35;99306.25;;;16.33;83.62
63500;BME280;49654;51.142;14.924;2022-09-12T00:24:03;99295.16;;;16.38;83.16
63500;BME280;49654;51.142;14.924;2022-09-12T00:26:30;99296.75;;;16.39;82.99
63500;BME280;49654;51.142;14.924;2022-09-12T00:28:57;99295.94;;;16.45;83.03
63500;BME280;49654;51.142;14.924;2022-09-12T00:31:25;99290.47;;;16.46;82.86
63500;BME280;49654;51.142;14.924;2022-09-12T00:33:55;99296.75;;;16.39;83.07
63500;BME280;49654;51.142;14.924;2022-09-12T00:36:23;99286.66;;;16.49;82.79
63500;BME280;49654;51.142;14.924;2022-09-12T00:38:51;99294.03;;;16.59;82.30
63500;BME280;49654;51.142;14.924;2022-09-12T00:41:21;99294.84;;;16.59;82.29
63500;BME280;49654;51.142;14.924;2022-09-12T00:43:50;99293.09;;;16.53;82.70
63500;BME280;49654;51.142;14.924;2022-09-12T00:46:26;99298.09;;;16.55;82.90
63500;BME280;49654;51.142;14.924;2022-09-12T00:48:58;99294.47;;;16.56;83.24
63500;BME280;49654;51.142;14.924;2022-09-12T00:51:27;99287.63;;;16.48;83.24
63500;BME280;49654;51.142;14.924;2022-09-12T00:53:56;99296.91;;;16.50;83.30
63500;BME280;49654;51.142;14.924;2022-09-12T00:56:25;99304.16;;;16.55;83.24
63500;BME280;49654;51.142;14.924;2022-09-12T00:58:55;99294.06;;;16.52;83.35
63500;BME280;49654;51.142;14.924;2022-09-12T01:01:23;99288.03;;;16.51;83.59
63500;BME280;49654;51.142;14.924;2022-09-12T01:03:50;99292.41;;;16.64;82.73
63500;BME280;49654;51.142;14.924;2022-09-12T01:06:21;99291.59;;;16.64;82.84
63500;BME280;49654;51.142;14.924;2022-09-12T01:08:51;99292.22;;;16.59;82.96
63500;BME280;49654;51.142;14.924;2022-09-12T01:11:20;99288.88;;;16.45;83.62
63500;BME280;49654;51.142;14.924;2022-09-12T01:13:48;99295.94;;;16.45;83.93
63500;BME280;49654;51.142;14.924;2022-09-12T01:16:16;99293.09;;;16.46;84.39
63500;BME280;49654;51.142;14.924;2022-09-12T01:18:53;99288.25;;;16.50;83.80
63500;BME280;49654;51.142;14.924;2022-09-12T01:21:31;99295.75;;;16.40;83.92
63500;BME280;49654;51.142;14.924;2022-09-12T01:24:33;99278.00;;;16.42;84.04
63500;BME280;49654;51.142;14.924;2022-09-12T01:27:13;99282.31;;;16.23;83.69
63500;BME280;49654;51.142;14.924;2022-09-12T01:29:59;99283.47;;;16.34;84.25
63500;BME280;49654;51.142;14.924;2022-09-12T01:32:38;99285.94;;;16.28;84.17
63500;BME280;49654;51.142;14.924;2022-09-12T01:35:17;99285.13;;;16.21;84.33
63500;BME280;49654;51.142;14.924;2022-09-12T01:37:53;99286.38;;;16.12;84.61
63500;BME280;49654;51.142;14.924;2022-09-12T01:40:30;99298.06;;;16.10;84.98
63500;BME280;49654;51.142;14.924;2022-09-12T01:43:03;99291.84;;;16.11;84.71
63500;BME280;49654;51.142;14.924;2022-09-12T01:45:38;99290.66;;;16.00;85.63
63500;BME280;49654;51.142;14.924;2022-09-12T01:48:13;99296.72;;;15.94;85.81
63500;BME280;49654;51.142;14.924;2022-09-12T01:50:48;99291.84;;;16.04;85.73
63500;BME280;49654;51.142;14.924;2022-09-12T01:53:20;99286.03;;;16.02;85.22
63500;BME280;49654;51.142;14.924;2022-09-12T01:55:53;99290.00;;;16.18;84.83
63500;BME280;49654;51.142;14.924;2022-09-12T01:58:25;99289.38;;;16.22;84.66
63500;BME280;49654;51.142;14.924;2022-09-12T02:00:59;99279.50;;;16.24;84.03
63500;BME280;49654;51.142;14.924;2022-09-12T02:03:31;99263.94;;;16.36;83.25
63500;BME280;49654;51.142;14.924;2022-09-12T02:06:02;99281.66;;;16.41;82.59
63500;BME280;49654;51.142;14.924;2022-09-12T02:08:36;99278.25;;;16.27;82.81
63500;BME280;49654;51.142;14.924;2022-09-12T02:11:06;99281.59;;;16.02;83.35
63500;BME280;49654;51.142;14.924;2022-09-12T02:13:37;99284.41;;;16.01;83.95
63500;BME280;49654;51.142;14.924;2022-09-12T02:16:07;99286.66;;;15.91;83.65
63500;BME280;49654;51.142;14.924;2022-09-12T02:18:38;99288.88;;;15.87;84.55
63500;BME280;49654;51.142;14.924;2022-09-12T02:21:07;99283.03;;;15.92;84.10
63500;BME280;49654;51.142;14.924;2022-09-12T02:23:40;99277.19;;;15.90;84.69
63500;BME280;49654;51.142;14.924;2022-09-12T02:26:12;99281.41;;;15.91;84.58
63500;BME280;49654;51.142;14.924;2022-09-12T02:28:41;99283.38;;;16.09;83.93
63500;BME280;49654;51.142;14.924;2022-09-12T02:31:13;99273.53;;;16.04;82.70
63500;BME280;49654;51.142;14.924;2022-09-12T02:33:48;99268.09;;;15.99;83.51
63500;BME280;49654;51.142;14.924;2022-09-12T02:36:25;99269.75;;;15.87;82.95
63500;BME280;49654;51.142;14.924;2022-09-12T02:38:54;99261.13;;;15.53;83.50
63500;BME280;49654;51.142;14.924;2022-09-12T02:41:21;99261.38;;;15.25;84.74
63500;BME280;49654;51.142;14.924;2022-09-12T02:43:50;99264.81;;;15.12;85.49
63500;BME280;49654;51.142;14.924;2022-09-12T02:46:21;99254.13;;;15.14;85.37
63500;BME280;49654;51.142;14.924;2022-09-12T02:48:50;99254.09;;;14.94;85.56
63500;BME280;49654;51.142;14.924;2022-09-12T02:51:17;99256.53;;;14.95;85.44
63500;BME280;49654;51.142;14.924;2022-09-12T02:53:45;99258.56;;;15.00;84.08
63500;BME280;49654;51.142;14.924;2022-09-12T02:56:16;99253.13;;;15.01;84.23
63500;BME280;49654;51.142;14.924;2022-09-12T02:58:44;99255.94;;;15.00;84.10
63500;BME280;49654;51.142;14.924;2022-09-12T03:01:21;99262.75;;;14.94;84.76
63500;BME280;49654;51.142;14.924;2022-09-12T03:04:12;99266.22;;;15.08;85.58
63500;BME280;49654;51.142;14.924;2022-09-12T03:06:50;99264.38;;;15.15;85.54
63500;BME280;49654;51.142;14.924;2022-09-12T03:09:25;99278.06;;;15.04;84.74
63500;BME280;49654;51.142;14.924;2022-09-12T03:12:08;99275.25;;;14.99;86.13
63500;BME280;49654;51.142;14.924;2022-09-12T03:14:55;99270.00;;;15.19;86.18
63500;BME280;49654;51.142;14.924;2022-09-12T03:17:31;99274.22;;;15.20;85.55
63500;BME280;49654;51.142;14.924;2022-09-12T03:20:08;99277.84;;;15.45;84.78
63500;BME280;49654;51.142;14.924;2022-09-12T03:22:43;99283.88;;;15.46;84.37
63500;BME280;49654;51.142;14.924;2022-09-12T03:25:16;99276.03;;;15.59;83.91
63500;BME280;49654;51.142;14.924;2022-09-12T03:27:50;99276.44;;;15.69;84.07
63500;BME280;49654;51.142;14.924;2022-09-12T03:30:19;99267.38;;;15.72;83.84
63500;BME280;49654;51.142;14.924;2022-09-12T03:32:48;99268.97;;;15.73;83.95
63500;BME280;49654;51.142;14.924;2022-09-12T03:35:18;99268.59;;;15.76;83.89
63500;BME280;49654;51.142;14.924;2022-09-12T03:37:45;99271.38;;;15.74;84.21
63500;BME280;49654;51.142;14.924;2022-09-12T03:40:13;99270.41;;;15.69;84.34
63500;BME280;49654;51.142;14.924;2022-09-12T03:42:41;99261.72;;;15.82;83.46
63500;BME280;49654;51.142;14.924;2022-09-12T03:45:08;99268.16;;;15.86;83.14
63500;BME280;49654;51.142;14.924;2022-09-12T03:47:36;99268.34;;;15.84;83.61
63500;BME280;49654;51.142;14.924;2022-09-12T03:50:04;99273.97;;;15.88;83.74
63500;BME280;49654;51.142;14.924;2022-09-12T03:52:33;99267.13;;;15.87;83.93
63500;BME280;49654;51.142;14.924;2022-09-12T03:55:00;99269.53;;;15.88;83.60
63500;BME280;49654;51.142;14.924;2022-09-12T03:57:27;99272.16;;;15.88;83.95
63500;BME280;49654;51.142;14.924;2022-09-12T03:59:54;99267.34;;;15.85;84.06
63500;BME280;49654;51.142;14.924;2022-09-12T04:02:21;99270.94;;;15.91;84.00
63500;BME280;49654;51.142;14.924;2022-09-12T04:04:48;99264.91;;;15.90;84.08
63500;BME280;49654;51.142;14.924;2022-09-12T04:07:15;99270.16;;;15.84;84.16
63500;BME280;49654;51.142;14.924;2022-09-12T04:09:43;99265.75;;;15.71;84.50
63500;BME280;49654;51.142;14.924;2022-09-12T04:12:10;99266.59;;;15.65;85.03
63500;BME280;49654;51.142;14.924;2022-09-12T04:14:37;99271.41;;;15.68;85.78
63500;BME280;49654;51.142;14.924;2022-09-12T04:17:04;99270.38;;;15.75;85.20
63500;BME280;49654;51.142;14.924;2022-09-12T04:19:31;99258.47;;;15.80;84.42
63500;BME280;49654;51.142;14.924;2022-09-12T04:21:58;99272.59;;;15.78;84.32
63500;BME280;49654;51.142;14.924;2022-09-12T04:24:25;99271.00;;;15.71;84.50
63500;BME280;49654;51.142;14.924;2022-09-12T04:26:53;99274.22;;;15.53;85.17
63500;BME280;49654;51.142;14.924;2022-09-12T04:29:20;99273.00;;;15.56;86.10
63500;BME280;49654;51.142;14.924;2022-09-12T04:31:47;99270.81;;;15.59;85.84
63500;BME280;49654;51.142;14.924;2022-09-12T04:34:14;99277.03;;;15.45;86.17
63500;BME280;49654;51.142;14.924;2022-09-12T04:36:41;99281.69;;;15.43;86.84
63500;BME280;49654;51.142;14.924;2022-09-12T04:39:09;99279.66;;;15.51;86.92
63500;BME280;49654;51.142;14.924;2022-09-12T04:41:38;99284.88;;;15.58;86.43
63500;BME280;49654;51.142;14.924;2022-09-12T04:44:09;99286.31;;;15.47;86.54
63500;BME280;49654;51.142;14.924;2022-09-12T04:46:38;99285.91;;;15.50;86.25
63500;BME280;49654;51.142;14.924;2022-09-12T04:49:06;99284.50;;;15.48;85.81
63500;BME280;49654;51.142;14.924;2022-09-12T04:51:35;99287.91;;;15.55;84.96
63500;BME280;49654;51.142;14.924;2022-09-12T04:54:05;99286.31;;;15.47;85.18
63500;BME280;49654;51.142;14.924;2022-09-12T04:56:35;99288.13;;;15.40;85.15
63500;BME280;49654;51.142;14.924;2022-09-12T04:59:03;99280.28;;;15.34;85.80
63500;BME280;49654;51.142;14.924;2022-09-12T05:01:31;99281.69;;;15.23;85.97
63500;BME280;49654;51.142;14.924;2022-09-12T05:03:58;99289.94;;;15.46;85.46
63500;BME280;49654;51.142;14.924;2022-09-12T05:06:27;99272.59;;;15.45;84.55
63500;BME280;49654;51.142;14.924;2022-09-12T05:08:55;99293.13;;;15.62;84.44
63500;BME280;49654;51.142;14.924;2022-09-12T05:11:25;99293.94;;;15.62;84.62
63500;BME280;49654;51.142;14.924;2022-09-12T05:13:53;99273.84;;;15.43;85.17
63500;BME280;49654;51.142;14.924;2022-09-12T05:16:20;99290.13;;;15.51;86.11
63500;BME280;49654;51.142;14.924;2022-09-12T05:18:49;99289.53;;;15.76;85.39
63500;BME280;49654;51.142;14.924;2022-09-12T05:21:19;99304.19;;;15.90;84.87
63500;BME280;49654;51.142;14.924;2022-09-12T05:23:50;99299.34;;;15.87;85.09
63500;BME280;49654;51.142;14.924;2022-09-12T05:26:17;99305.22;;;15.83;85.35
63500;BME280;49654;51.142;14.924;2022-09-12T05:28:46;99296.72;;;15.94;85.87
63500;BME280;49654;51.142;14.924;2022-09-12T05:31:14;99300.72;;;16.03;85.04
63500;BME280;49654;51.142;14.924;2022-09-12T05:33:42;99312.00;;;16.10;85.05
63500;BME280;49654;51.142;14.924;2022-09-12T05:36:14;99315.63;;;16.09;85.43
63500;BME280;49654;51.142;14.924;2022-09-12T05:38:42;99317.47;;;16.02;85.12
63500;BME280;49654;51.142;14.924;2022-09-12T05:41:10;99320.41;;;16.25;84.78
63500;BME280;49654;51.142;14.924;2022-09-12T05:43:39;99310.31;;;16.22;84.61
63500;BME280;49654;51.142;14.924;2022-09-12T05:46:09;99307.66;;;16.36;84.08
63500;BME280;49654;51.142;14.924;2022-09-12T05:48:38;99332.31;;;16.73;81.93
63500;BME280;49654;51.142;14.924;2022-09-12T05:51:07;99322.97;;;16.84;81.54
63500;BME280;49654;51.142;14.924;2022-09-12T05:53:37;99327.53;;;16.95;80.60
63500;BME280;49654;51.142;14.924;2022-09-12T05:56:05;99323.72;;;16.91;80.77
63500;BME280;49654;51.142;14.924;2022-09-12T05:58:33;99320.91;;;16.92;80.37
63500;BME280;49654;51.142;14.924;2022-09-12T06:01:02;99328.88;;;17.04;80.41
63500;BME280;49654;51.142;14.924;2022-09-12T06:03:30;99327.56;;;17.20;79.32
63500;BME280;49654;51.142;14.924;2022-09-12T06:06:00;99314.19;;;17.28;79.67
63500;BME280;49654;51.142;14.924;2022-09-12T06:08:27;99324.16;;;17.19;78.67
63500;BME280;49654;51.142;14.924;2022-09-12T06:10:59;99319.66;;;17.26;79.03
63500;BME280;49654;51.142;14.924;2022-09-12T06:13:26;99323.56;;;17.17;77.93
63500;BME280;49654;51.142;14.924;2022-09-12T06:15:53;99325.00;;;17.38;78.21
63500;BME280;49654;51.142;14.924;2022-09-12T06:18:19;99322.00;;;17.60;77.67
63500;BME280;49654;51.142;14.924;2022-09-12T06:20:46;99323.28;;;17.75;77.54
63500;BME280;49654;51.142;14.924;2022-09-12T06:23:13;99323.31;;;17.94;75.31
63500;BME280;49654;51.142;14.924;2022-09-12T06:25:45;99326.16;;;17.92;76.13
63500;BME280;49654;51.142;14.924;2022-09-12T06:28:14;99320.84;;;17.99;76.05
63500;BME280;49654;51.142;14.924;2022-09-12T06:30:41;99325.66;;;18.02;74.85
63500;BME280;49654;51.142;14.924;2022-09-12T06:33:08;99321.50;;;17.94;75.54
63500;BME280;49654;51.142;14.924;2022-09-12T06:35:35;99321.66;;;17.99;74.69
63500;BME280;49654;51.142;14.924;2022-09-12T06:38:03;99317.06;;;17.95;74.75
63500;BME280;49654;51.142;14.924;2022-09-12T06:40:30;99320.16;;;17.85;74.10
63500;BME280;49654;51.142;14.924;2022-09-12T06:42:57;99314.25;;;17.90;74.27
63500;BME280;49654;51.142;14.924;2022-09-12T06:45:25;99321.78;;;18.05;74.37
63500;BME280;49654;51.142;14.924;2022-09-12T06:47:53;99323.38;;;18.24;72.89
63500;BME280;49654;51.142;14.924;2022-09-12T06:50:20;99319.66;;;18.32;72.46
63500;BME280;49654;51.142;14.924;2022-09-12T06:52:48;99328.09;;;18.52;72.20
63500;BME280;49654;51.142;14.924;2022-09-12T06:55:15;99317.34;;;18.53;70.76
63500;BME280;49654;51.142;14.924;2022-09-12T06:57:42;99320.00;;;18.72;69.80
63500;BME280;49654;51.142;14.924;2022-09-12T07:00:10;99332.13;;;18.73;69.27
63500;BME280;49654;51.142;14.924;2022-09-12T07:02:38;99328.44;;;19.04;68.81
63500;BME280;49654;51.142;14.924;2022-09-12T07:05:06;99312.78;;;19.21;69.00
63500;BME280;49654;51.142;14.924;2022-09-12T07:07:33;99324.22;;;19.15;68.34
63500;BME280;49654;51.142;14.924;2022-09-12T07:10:00;99327.16;;;18.95;68.71
63500;BME280;49654;51.142;14.924;2022-09-12T07:12:27;99330.13;;;18.68;69.10
63500;BME280;49654;51.142;14.924;2022-09-12T07:14:54;99335.81;;;18.65;69.98
63500;BME280;49654;51.142;14.924;2022-09-12T07:17:21;99328.03;;;18.40;70.73
63500;BME280;49654;51.142;14.924;2022-09-12T07:19:49;99341.84;;;18.36;70.68
63500;BME280;49654;51.142;14.924;2022-09-12T07:22:16;99343.38;;;18.43;70.57
63500;BME280;49654;51.142;14.924;2022-09-12T07:24:43;99345.78;;;18.45;71.30
63500;BME280;49654;51.142;14.924;2022-09-12T07:27:11;99348.22;;;18.46;70.43
63500;BME280;49654;51.142;14.924;2022-09-12T07:29:38;99346.94;;;18.49;70.30
63500;BME280;49654;51.142;14.924;2022-09-12T07:32:05;99357.34;;;18.25;70.50
63500;BME280;49654;51.142;14.924;2022-09-12T07:34:32;99345.66;;;18.21;70.61
63500;BME280;49654;51.142;14.924;2022-09-12T07:37:00;99339.34;;;18.41;70.21
63500;BME280;49654;51.142;14.924;2022-09-12T07:39:27;99352.53;;;18.04;71.03
63500;BME280;49654;51.142;14.924;2022-09-12T07:41:54;99351.50;;;18.23;70.62
63500;BME280;49654;51.142;14.924;2022-09-12T07:44:22;99351.84;;;18.27;70.26
63500;BME280;49654;51.142;14.924;2022-09-12T07:46:49;99351.13;;;18.20;71.13
63500;BME280;49654;51.142;14.924;2022-09-12T07:49:16;99355.28;;;18.27;71.07
63500;BME280;49654;51.142;14.924;2022-09-12T07:51:43;99359.59;;;18.22;71.40
63500;BME280;49654;51.142;14.924;2022-09-12T07:54:12;99367.84;;;18.25;71.97
63500;BME280;49654;51.142;14.924;2022-09-12T07:56:39;99364.50;;;18.18;70.96
63500;BME280;49654;51.142;14.924;2022-09-12T07:59:06;99363.19;;;18.09;71.13
63500;BME280;49654;51.142;14.924;2022-09-12T08:01:33;99372.50;;;18.05;72.11
63500;BME280;49654;51.142;14.924;2022-09-12T08:04:01;99367.22;;;18.12;72.77
63500;BME280;49654;51.142;14.924;2022-09-12T08:06:29;99366.03;;;18.08;72.18
63500;BME280;49654;51.142;14.924;2022-09-12T08:08:58;99372.22;;;18.13;72.37
63500;BME280;49654;51.142;14.924;2022-09-12T08:11:28;99372.56;;;17.80;73.08
63500;BME280;49654;51.142;14.924;2022-09-12T08:13:56;99372.41;;;17.68;73.91
63500;BME280;49654;51.142;14.924;2022-09-12T08:16:24;99370.81;;;17.74;74.71
63500;BME280;49654;51.142;14.924;2022-09-12T08:18:52;99370.72;;;17.81;74.42
63500;BME280;49654;51.142;14.924;2022-09-12T08:21:21;99373.16;;;17.82;74.86
63500;BME280;49654;51.142;14.924;2022-09-12T08:23:51;99366.59;;;17.91;73.94
63500;BME280;49654;51.142;14.924;2022-09-12T08:26:18;99372.31;;;18.25;72.64
63500;BME280;49654;51.142;14.924;2022-09-12T08:28:47;99361.13;;;18.11;72.57
63500;BME280;49654;51.142;14.924;2022-09-12T08:31:15;99359.66;;;18.15;73.20
63500;BME280;49654;51.142;14.924;2022-09-12T08:33:43;99366.53;;;18.53;71.81
63500;BME280;49654;51.142;14.924;2022-09-12T08:36:12;99373.41;;;18.36;72.24
63500;BME280;49654;51.142;14.924;2022-09-12T08:38:41;99379.69;;;18.35;72.20
63500;BME280;49654;51.142;14.924;2022-09-12T08:41:11;99383.63;;;18.44;72.47
63500;BME280;49654;51.142;14.924;2022-09-12T08:44:00;99376.78;;;18.24;71.76
63500;BME280;49654;51.142;14.924;2022-09-12T08:46:35;99376.84;;;18.55;71.11
63500;BME280;49654;51.142;14.924;2022-09-12T08:49:04;99375.78;;;18.74;70.13
63500;BME280;49654;51.142;14.924;2022-09-12T08:51:35;99368.00;;;18.97;69.60
63500;BME280;49654;51.142;14.924;2022-09-12T08:54:17;99378.31;;;18.99;70.27
63500;BME280;49654;51.142;14.924;2022-09-12T08:56:45;99353.22;;;18.96;69.84
63500;BME280;49654;51.142;14.924;2022-09-12T08:59:15;99352.91;;;18.93;69.03
63500;BME280;49654;51.142;14.924;2022-09-12T09:01:43;99369.00;;;18.96;69.54
63500;BME280;49654;51.142;14.924;2022-09-12T09:04:34;99365.53;;;19.14;68.61
63500;BME280;49654;51.142;14.924;2022-09-12T09:07:16;99362.91;;;19.26;67.84
63500;BME280;49654;51.142;14.924;2022-09-12T09:09:59;99370.97;;;19.43;67.92
63500;BME280;49654;51.142;14.924;2022-09-12T09:12:37;99356.47;;;19.75;66.35
63500;BME280;49654;51.142;14.924;2022-09-12T09:15:20;99368.47;;;20.07;64.80
63500;BME280;49654;51.142;14.924;2022-09-12T09:17:54;99335.38;;;20.51;63.86
63500;BME280;49654;51.142;14.924;2022-09-12T09:20:28;99355.44;;;21.09;59.77
63500;BME280;49654;51.142;14.924;2022-09-12T09:23:01;99356.72;;;21.23;60.28
63500;BME280;49654;51.142;14.924;2022-09-12T09:25:38;99356.00;;;21.28;58.45
63500;BME280;49654;51.142;14.924;2022-09-12T09:28:13;99356.09;;;21.16;59.63
63500;BME280;49654;51.142;14.924;2022-09-12T09:30:43;99355.78;;;21.30;59.03
63500;BME280;49654;51.142;14.924;2022-09-12T09:33:18;99354.34;;;21.72;58.29
63500;BME280;49654;51.142;14.924;2022-09-12T09:35:52;99349.63;;;22.13;56.03
63500;BME280;49654;51.142;14.924;2022-09-12T09:38:24;99348.34;;;22.38;55.15
63500;BME280;49654;51.142;14.924;2022-09-12T09:41:06;99341.78;;;22.67;54.02
63500;BME280;49654;51.142;14.924;2022-09-12T09:43:36;99339.84;;;22.58;51.58
63500;BME280;49654;51.142;14.924;2022-09-12T09:46:05;99347.03;;;22.62;51.00
63500;BME280;49654;51.142;14.924;2022-09-12T09:48:34;99349.38;;;22.59;49.92
63500;BME280;49654;51.142;14.924;2022-09-12T09:51:04;99350.28;;;22.04;52.68
63500;BME280;49654;51.142;14.924;2022-09-12T09:53:38;99354.44;;;22.16;52.79
63500;BME280;49654;51.142;14.924;2022-09-12T09:56:11;99348.94;;;22.67;51.88
63500;BME280;49654;51.142;14.924;2022-09-12T09:58:40;99344.94;;;22.64;50.27
63500;BME280;49654;51.142;14.924;2022-09-12T10:01:14;99350.81;;;22.44;50.34
63500;BME280;49654;51.142;14.924;2022-09-12T10:03:47;99346.75;;;22.15;50.75
63500;BME280;49654;51.142;14.924;2022-09-12T10:06:29;99348.75;;;22.08;51.41
63500;BME280;49654;51.142;14.924;2022-09-12T10:09:20;99340.53;;;21.87;52.32
63500;BME280;49654;51.142;14.924;2022-09-12T10:11:48;99348.84;;;21.96;50.12
63500;BME280;49654;51.142;14.924;2022-09-12T10:14:33;99344.53;;;22.78;51.51
63500;BME280;49654;51.142;14.924;2022-09-12T10:17:20;99339.44;;;23.62;47.27
63500;BME280;49654;51.142;14.924;2022-09-12T10:19:48;99346.53;;;23.52;50.02
63500;BME280;49654;51.142;14.924;2022-09-12T10:22:17;99337.03;;;22.91;47.53
63500;BME280;49654;51.142;14.924;2022-09-12T10:24:48;99345.38;;;22.34;52.07
63500;BME280;49654;51.142;14.924;2022-09-12T10:27:19;99348.00;;;21.90;53.06
63500;BME280;49654;51.142;14.924;2022-09-12T10:29:48;99343.97;;;21.88;54.01
63500;BME280;49654;51.142;14.924;2022-09-12T10:32:26;99339.72;;;21.48;53.65
63500;BME280;49654;51.142;14.924;2022-09-12T10:34:58;99345.06;;;21.36;55.19
63500;BME280;49654;51.142;14.924;2022-09-12T10:37:29;99351.28;;;21.13;53.11
63500;BME280;49654;51.142;14.924;2022-09-12T10:39:58;99350.94;;;20.93;55.09
63500;BME280;49654;51.142;14.924;2022-09-12T10:42:45;99345.91;;;20.91;54.67
63500;BME280;49654;51.142;14.924;2022-09-12T10:45:21;99352.28;;;21.41;53.73
63500;BME280;49654;51.142;14.924;2022-09-12T10:47:52;99357.34;;;21.59;52.37
63500;BME280;49654;51.142;14.924;2022-09-12T10:50:22;99347.09;;;21.63;52.21
63500;BME280;49654;51.142;14.924;2022-09-12T10:52:51;99347.66;;;21.87;52.30
63500;BME280;49654;51.142;14.924;2022-09-12T10:55:21;99350.44;;;22.36;50.65
63500;BME280;49654;51.142;14.924;2022-09-12T10:58:01;99336.06;;;22.75;50.14
63500;BME280;49654;51.142;14.924;2022-09-12T11:00:36;99345.56;;;22.98;49.82
63500;BME280;49654;51.142;14.924;2022-09-12T11:03:14;99340.50;;;23.61;49.78
63500;BME280;49654;51.142;14.924;2022-09-12T11:05:52;99321.47;;;23.69;47.84
63500;BME280;49654;51.142;14.924;2022-09-12T11:08:33;99335.03;;;23.41;47.64
63500;BME280;49654;51.142;14.924;2022-09-12T11:11:06;99330.25;;;23.38;46.52
63500;BME280;49654;51.142;14.924;2022-09-12T11:13:50;99325.59;;;23.97;45.91
63500;BME280;49654;51.142;14.924;2022-09-12T11:16:25;99326.66;;;23.54;47.97
63500;BME280;49654;51.142;14.924;2022-09-12T11:19:23;99330.34;;;23.53;47.41
63500;BME280;49654;51.142;14.924;2022-09-12T11:22:18;99327.44;;;23.92;47.18
63500;BME280;49654;51.142;14.924;2022-09-12T11:25:05;99320.72;;;23.79;48.12
63500;BME280;49654;51.142;14.924;2022-09-12T11:27:43;99324.00;;;23.96;48.99
63500;BME280;49654;51.142;14.924;2022-09-12T11:30:16;99315.28;;;23.59;46.65
63500;BME280;49654;51.142;14.924;2022-09-12T11:32:56;99322.81;;;23.35;46.67
63500;BME280;49654;51.142;14.924;2022-09-12T11:35:29;99323.97;;;23.49;46.51
63500;BME280;49654;51.142;14.924;2022-09-12T11:41:01;99321.19;;;24.18;47.17
63500;BME280;49654;51.142;14.924;2022-09-12T11:43:34;99319.69;;;24.38;43.92
63500;BME280;49654;51.142;14.924;2022-09-12T11:46:11;99319.66;;;23.80;45.63
63500;BME280;49654;51.142;14.924;2022-09-12T11:48:44;99315.03;;;22.91;45.35
63500;BME280;49654;51.142;14.924;2022-09-12T11:51:18;99318.38;;;22.54;49.27
63500;BME280;49654;51.142;14.924;2022-09-12T11:54:00;99314.13;;;22.53;50.18
63500;BME280;49654;51.142;14.924;2022-09-12T11:56:30;99328.47;;;22.57;49.53
63500;BME280;49654;51.142;14.924;2022-09-12T11:59:00;99322.47;;;22.67;50.05
63500;BME280;49654;51.142;14.924;2022-09-12T12:01:34;99322.78;;;22.70;47.89
63500;BME280;49654;51.142;14.924;2022-09-12T12:04:07;99315.47;;;23.10;45.79
63500;BME280;49654;51.142;14.924;2022-09-12T12:06:47;99318.09;;;23.79;45.93
63500;BME280;49654;51.142;14.924;2022-09-12T12:09:15;99314.69;;;24.57;42.78
63500;BME280;49654;51.142;14.924;2022-09-12T12:11:46;99313.63;;;24.53;44.48
63500;BME280;49654;51.142;14.924;2022-09-12T12:14:16;99308.16;;;24.12;44.68
63500;BME280;49654;51.142;14.924;2022-09-12T12:16:45;99314.63;;;23.73;43.92
63500;BME280;49654;51.142;14.924;2022-09-12T12:19:29;99309.00;;;22.73;46.30
63500;BME280;49654;51.142;14.924;2022-09-12T12:22:05;99321.84;;;22.33;49.05
63500;BME280;49654;51.142;14.924;2022-09-12T12:24:32;99336.66;;;21.73;51.31
63500;BME280;49654;51.142;14.924;2022-09-12T12:27:02;99337.84;;;21.15;53.18
63500;BME280;49654;51.142;14.924;2022-09-12T12:29:40;99317.19;;;20.95;55.38
63500;BME280;49654;51.142;14.924;2022-09-12T12:32:24;99325.53;;;21.20;54.18
63500;BME280;49654;51.142;14.924;2022-09-12T12:35:10;99326.13;;;20.94;54.58
63500;BME280;49654;51.142;14.924;2022-09-12T12:37:52;99333.78;;;21.07;54.72
63500;BME280;49654;51.142;14.924;2022-09-12T12:40:23;99332.94;;;20.61;55.56
63500;BME280;49654;51.142;14.924;2022-09-12T12:46:05;99332.66;;;20.74;55.69
63500;BME280;49654;51.142;14.924;2022-09-12T12:48:42;99334.88;;;20.66;53.99
63500;BME280;49654;51.142;14.924;2022-09-12T12:51:36;99324.59;;;20.81;55.40
63500;BME280;49654;51.142;14.924;2022-09-12T12:54:26;99314.69;;;21.34;54.15
63500;BME280;49654;51.142;14.924;2022-09-12T12:57:14;99325.31;;;21.94;51.49
63500;BME280;49654;51.142;14.924;2022-09-12T12:59:48;99312.03;;;22.55;51.00
63500;BME280;49654;51.142;14.924;2022-09-12T13:02:19;99313.22;;;23.29;48.58
63500;BME280;49654;51.142;14.924;2022-09-12T13:04:48;99311.00;;;23.95;48.17
63500;BME280;49654;51.142;14.924;2022-09-12T13:07:24;99301.19;;;25.04;44.21
63500;BME280;49654;51.142;14.924;2022-09-12T13:09:54;99305.16;;;25.58;41.09
63500;BME280;49654;51.142;14.924;2022-09-12T13:12:25;99294.03;;;25.20;42.24
63500;BME280;49654;51.142;14.924;2022-09-12T13:14:54;99292.63;;;26.33;39.94
63500;BME280;49654;51.142;14.924;2022-09-12T13:17:24;99288.38;;;30.22;33.38
63500;BME280;49654;51.142;14.924;2022-09-12T13:20:01;99260.97;;;34.46;26.08